This is the latest recevied weather packets stored in our database for station/object K1BES. If no packets are shown the sender has not sent any weather packets the latest 10 day(s).
| Time | Temp. | Humidity | Pressure | Rain* | Wind** | Luminosity | Snow |
|---|---|---|---|---|---|---|---|
| 1777313847 | 26.67° C | 80% | 1017.1 hPa | 0 mm | - | 271 W/m² | - |
| 1777313543 | 26.67° C | 79% | 1017.3 hPa | 0 mm | - | 205 W/m² | - |
| 1777313241 | 27.22° C | 78% | 1017.3 hPa | 0 mm | - | 196 W/m² | - |
| 1777312937 | 28.33° C | 76% | 1017.1 hPa | 0 mm | - | 193 W/m² | - |
| 1777312633 | 28.33° C | 75% | 1017.4 hPa | 0 mm | - | 236 W/m² | - |
| 1777312331 | 30° C | 71% | 1017.4 hPa | 0 mm | - | 293 W/m² | - |
| 1777312028 | 28.89° C | 72% | 1017.3 hPa | 0 mm | - | 1195 W/m² | - |
| 1777311724 | 28.89° C | 73% | 1017.3 hPa | 0 mm | - | 1127 W/m² | - |
| 1777311422 | 28.33° C | 74% | 1017.4 hPa | 0 mm | - | 1151 W/m² | - |
| 1777311119 | 28.89° C | 72% | 1017.2 hPa | 0 mm | - | 189 W/m² | - |
| 1777310818 | 29.44° C | 66% | 1017.5 hPa | 0 mm | - | 1194 W/m² | - |
| 1777310515 | 30° C | 70% | 1017.4 hPa | 0 mm | - | 1137 W/m² | - |
| 1777310211 | 28.89° C | 69% | 1017.4 hPa | 0 mm | - | 1156 W/m² | - |
| 1777309909 | 28.33° C | 72% | 1017.5 hPa | 0 mm | - | 261 W/m² | - |
| 1777309607 | 29.44° C | 70% | 1017.6 hPa | 0 mm | - | 1237 W/m² | - |
| 1777309304 | 30° C | 66% | 1017.5 hPa | 0 mm | - | 731 W/m² | - |
| 1777309002 | 29.44° C | 69% | 1017.8 hPa | 0 mm | - | 1128 W/m² | - |
| 1777308703 | 30.56° C | 65% | 1017.4 hPa | 0 mm | - | 1157 W/m² | - |
| 1777308398 | 31.67° C | 53% | 1017.6 hPa | 0 mm | - | 237 W/m² | - |
| 1777308093 | 31.11° C | 53% | 1017.8 hPa | 0 mm | - | 238 W/m² | - |
| 1777307792 | 30.56° C | 54% | 1017.6 hPa | 0 mm | - | 1086 W/m² | - |
| 1777307489 | 30° C | 58% | 1017.8 hPa | 0 mm | - | 1089 W/m² | - |
| 1777307186 | 31.11° C | 56% | 1017.8 hPa | 0 mm | - | 215 W/m² | - |
| 1777306883 | 30.56° C | 57% | 1017.7 hPa | 0 mm | - | 1116 W/m² | - |
| 1777306580 | 31.11° C | 55% | 1017.5 hPa | 0 mm | - | 1079 W/m² | - |
* Rain latest hour (hover to see other rain measurements)
** Current wind speed in m/s (hover to see current wind gust speed)